Time;durP1;ratioP1;P1;durP2;ratioP2;P2;SDS_P1;SDS_P2;PMS_P1;PMS_P2;Temp;Humidity;BMP_temperature;BMP_pressure;BME280_temperature;BME280_humidity;BME280_pressure;Samples;Min_cycle;Max_cycle;Signal;HPM_P1;HPM_P2
2023/06/17 00:01:05;;;;;;;73.82;53.90;;;21.80;59.60;;;;;;4927061;28;89577;-70
2023/06/17 00:03:30;;;;;;;74.05;53.67;;;21.80;59.80;;;;;;4929786;28;90061;-72
2023/06/17 00:05:56;;;;;;;72.60;53.92;;;21.80;59.80;;;;;;4926454;28;90202;-70
2023/06/17 00:08:21;;;;;;;74.03;54.28;;;21.80;59.90;;;;;;4917874;28;92456;-70
2023/06/17 00:10:47;;;;;;;74.18;53.95;;;21.80;59.90;;;;;;4931112;28;92245;-72
2023/06/17 00:13:19;;;;;;;73.38;53.67;;;21.80;59.90;;;;;;4919715;28;90520;-71
2023/06/17 00:15:56;;;;;;;73.78;54.08;;;21.70;60.10;;;;;;4930403;28;90550;-70
2023/06/17 00:18:26;;;;;;;77.22;54.08;;;21.70;60.20;;;;;;4930049;28;89466;-71
2023/06/17 00:20:53;;;;;;;73.22;54.10;;;21.60;60.40;;;;;;4931651;28;89923;-70
2023/06/17 00:23:22;;;;;;;72.78;53.58;;;21.60;60.60;;;;;;4943792;28;89619;-70
2023/06/17 00:25:49;;;;;;;74.07;53.97;;;21.60;60.70;;;;;;4942189;28;90874;-72
2023/06/17 00:28:15;;;;;;;74.30;53.90;;;21.60;60.50;;;;;;4930134;28;89113;-69
2023/06/17 00:30:44;;;;;;;73.45;54.38;;;21.60;60.60;;;;;;4930892;28;90276;-69
2023/06/17 00:33:10;;;;;;;72.72;53.92;;;21.50;60.70;;;;;;4929602;28;93166;-71
2023/06/17 00:35:35;;;;;;;73.43;53.90;;;21.50;60.80;;;;;;4936710;28;91084;-70
2023/06/17 00:38:01;;;;;;;73.05;53.85;;;21.50;60.80;;;;;;4937842;28;90518;-71
2023/06/17 00:40:27;;;;;;;74.25;54.03;;;21.50;61.00;;;;;;4934410;28;89897;-71
2023/06/17 00:42:53;;;;;;;72.82;53.88;;;21.40;61.20;;;;;;4938117;28;95190;-71
2023/06/17 00:45:18;;;;;;;74.20;53.85;;;21.50;61.20;;;;;;4939501;28;90972;-72
2023/06/17 00:47:45;;;;;;;72.88;54.05;;;21.50;60.90;;;;;;4937356;28;93603;-71
2023/06/17 00:50:15;;;;;;;72.90;53.97;;;21.40;61.20;;;;;;4932276;28;89565;-70
2023/06/17 00:52:43;;;;;;;72.88;53.72;;;21.40;61.10;;;;;;4931477;28;89809;-70
2023/06/17 00:55:10;;;;;;;74.15;54.33;;;21.40;61.30;;;;;;4931270;28;90608;-71
2023/06/17 00:57:40;;;;;;;72.68;53.97;;;21.40;61.10;;;;;;4927690;28;90379;-70
2023/06/17 01:00:10;;;;;;;73.47;53.95;;;21.30;61.20;;;;;;4927354;28;90483;-69
2023/06/17 01:02:39;;;;;;;72.70;53.75;;;21.30;61.30;;;;;;4923186;28;89992;-71
2023/06/17 01:05:11;;;;;;;73.00;54.03;;;21.40;61.40;;;;;;4925939;28;90518;-69
2023/06/17 01:07:50;;;;;;;;;;;21.40;61.40;;;;;;4927216;28;89573;-69
2023/06/17 01:10:45;;;;;;;72.35;53.85;;;21.30;61.20;;;;;;4933608;28;89186;-72
2023/06/17 01:13:15;;;;;;;72.68;53.72;;;21.30;61.20;;;;;;4930274;28;89951;-70
2023/06/17 01:15:41;;;;;;;73.03;53.70;;;21.30;62.00;;;;;;4925287;28;90235;-70
2023/06/17 01:18:08;;;;;;;72.75;53.72;;;21.20;61.90;;;;;;4927797;28;89216;-71
2023/06/17 01:20:35;;;;;;;73.25;54.10;;;21.20;61.90;;;;;;4928706;28;90156;-71
2023/06/17 01:23:03;;;;;;;72.50;53.83;;;21.10;62.00;;;;;;4931718;28;90049;-70
2023/06/17 01:25:30;;;;;;;72.28;53.83;;;21.00;62.20;;;;;;4931709;28;91893;-69
2023/06/17 01:28:16;;;;;;;73.85;53.78;;;21.10;62.60;;;;;;4929817;28;91343;-71
2023/06/17 01:30:56;;;;;;;73.13;53.63;;;21.20;62.10;;;;;;4926480;28;91200;-71
2023/06/17 01:33:23;;;;;;;72.40;53.50;;;21.20;62.10;;;;;;4935428;28;90121;-71
2023/06/17 01:35:58;;;;;;;73.03;53.83;;;21.10;62.40;;;;;;4929864;28;90774;-71
2023/06/17 01:38:41;;;;;;;74.05;53.67;;;21.20;62.00;;;;;;4925626;28;89984;-70
2023/06/17 01:41:42;;;;;;;72.80;53.75;;;21.10;62.20;;;;;;4937250;28;89331;-71
2023/06/17 01:44:09;;;;;;;72.53;53.78;;;21.10;62.50;;;;;;4931410;28;89003;-69
2023/06/17 01:46:35;;;;;;;72.30;53.78;;;21.10;62.80;;;;;;4932956;28;92207;-71
2023/06/17 01:49:01;;;;;;;72.78;53.80;;;21.00;62.30;;;;;;4925140;28;89945;-70
2023/06/17 01:51:27;;;;;;;72.80;53.58;;;21.10;62.30;;;;;;4929042;28;95269;-70
2023/06/17 01:53:52;;;;;;;73.32;53.83;;;21.00;62.30;;;;;;4932617;28;89487;-70
2023/06/17 01:56:18;;;;;;;73.30;53.88;;;21.00;62.80;;;;;;4933794;28;89805;-71
2023/06/17 01:58:43;;;;;;;73.53;54.20;;;20.90;62.50;;;;;;4925528;28;90450;-70
2023/06/17 02:01:09;;;;;;;73.00;53.97;;;20.90;63.00;;;;;;4935865;28;89535;-70
2023/06/17 02:03:35;;;;;;;73.03;54.10;;;20.90;62.80;;;;;;4936545;28;90169;-71
2023/06/17 02:06:01;;;;;;;72.78;53.80;;;20.90;63.10;;;;;;4934608;28;90173;-71
2023/06/17 02:08:27;;;;;;;73.20;53.75;;;20.90;62.60;;;;;;4934208;28;89255;-70
2023/06/17 02:10:52;;;;;;;73.20;54.10;;;20.80;63.30;;;;;;4933816;28;90129;-69
2023/06/17 02:13:18;;;;;;;72.57;54.03;;;20.80;62.80;;;;;;4922387;28;89474;-70
2023/06/17 02:15:44;;;;;;;72.28;53.40;;;20.80;62.90;;;;;;4931800;28;91012;-70
2023/06/17 02:18:12;;;;;;;72.20;53.60;;;20.80;62.80;;;;;;4932407;28;90407;-71
2023/06/17 02:20:38;;;;;;;71.95;53.53;;;20.80;63.50;;;;;;4924908;28;91432;-71
2023/06/17 02:23:04;;;;;;;72.50;53.75;;;20.80;63.00;;;;;;4939412;28;89901;-70
2023/06/17 02:25:29;;;;;;;73.30;54.38;;;20.80;63.00;;;;;;4934178;28;89969;-71
2023/06/17 02:27:55;;;;;;;72.78;53.67;;;20.80;63.30;;;;;;4935023;28;91075;-71
2023/06/17 02:30:21;;;;;;;72.45;53.80;;;20.80;63.70;;;;;;4925499;28;90345;-71
2023/06/17 02:32:46;;;;;;;72.93;53.60;;;20.70;62.80;;;;;;4937882;28;89531;-71
2023/06/17 02:35:12;;;;;;;72.20;53.75;;;20.70;63.70;;;;;;4930278;28;90374;-68
2023/06/17 02:37:38;;;;;;;71.93;53.55;;;20.80;63.90;;;;;;4929904;28;90183;-69
2023/06/17 02:40:08;;;;;;;71.95;53.47;;;20.70;63.50;;;;;;4933633;28;90248;-70
2023/06/17 02:42:34;;;;;;;71.67;53.30;;;20.60;64.00;;;;;;4935195;28;89814;-70
2023/06/17 02:45:00;;;;;;;72.32;53.53;;;20.60;63.60;;;;;;4927507;28;91787;-69
2023/06/17 02:47:26;;;;;;;72.28;53.88;;;20.60;64.20;;;;;;4929511;28;89971;-68
2023/06/17 02:49:52;;;;;;;72.20;53.53;;;20.60;64.10;;;;;;4932157;28;89907;-70
2023/06/17 02:52:17;;;;;;;72.10;53.38;;;20.50;64.00;;;;;;4932065;28;90234;-70
2023/06/17 02:54:43;;;;;;;74.63;53.78;;;20.50;63.70;;;;;;4937628;28;92475;-70
2023/06/17 02:57:09;;;;;;;71.93;53.47;;;20.40;63.90;;;;;;4931064;28;90139;-71
2023/06/17 02:59:36;;;;;;;72.88;53.65;;;20.40;64.10;;;;;;4931913;28;90479;-70
2023/06/17 03:02:01;;;;;;;72.65;53.65;;;20.40;63.90;;;;;;4934596;28;90351;-71
2023/06/17 03:04:34;;;;;;;72.38;53.78;;;20.40;63.90;;;;;;4932021;28;92411;-70
2023/06/17 03:07:04;;;;;;;72.88;53.63;;;20.40;64.30;;;;;;4935569;28;90078;-70
2023/06/17 03:09:30;;;;;;;71.22;53.25;;;20.30;64.00;;;;;;4928678;28;90902;-69
2023/06/17 03:11:56;;;;;;;73.43;53.75;;;20.30;64.00;;;;;;4930608;28;91698;-71
2023/06/17 03:14:22;;;;;;;72.05;53.47;;;20.40;64.30;;;;;;4936408;28;89528;-69
2023/06/17 03:16:47;;;;;;;72.45;53.83;;;20.30;64.80;;;;;;4934477;28;89820;-71
2023/06/17 03:19:14;;;;;;;71.65;53.67;;;20.30;64.50;;;;;;4931660;28;89533;-71
2023/06/17 03:21:42;;;;;;;72.95;53.85;;;20.30;64.90;;;;;;4935567;28;89020;-70
2023/06/17 03:24:08;;;;;;;71.50;53.42;;;20.30;65.00;;;;;;4938103;28;90028;-70
2023/06/17 03:26:34;;;;;;;73.03;53.92;;;20.30;64.60;;;;;;4938212;28;92487;-70
2023/06/17 03:29:01;;;;;;;73.50;53.75;;;20.20;64.90;;;;;;4932622;28;91540;-71
2023/06/17 03:31:28;;;;;;;72.97;53.40;;;20.30;64.70;;;;;;4931085;28;90469;-71
2023/06/17 03:33:54;;;;;;;71.95;53.85;;;20.30;64.20;;;;;;4936079;28;89937;-71
2023/06/17 03:36:28;;;;;;;71.75;53.65;;;20.30;64.50;;;;;;4935560;28;89561;-70
2023/06/17 03:38:54;;;;;;;71.43;53.42;;;20.30;64.50;;;;;;4944302;28;94464;-70
2023/06/17 03:41:20;;;;;;;71.68;53.40;;;20.20;64.30;;;;;;4943256;28;90712;-70
2023/06/17 03:43:46;;;;;;;73.13;53.92;;;20.20;64.70;;;;;;4934087;28;89856;-71
2023/06/17 03:46:11;;;;;;;71.25;53.38;;;20.20;64.50;;;;;;4932853;28;89194;-70
2023/06/17 03:48:37;;;;;;;72.93;53.33;;;20.20;64.10;;;;;;4939463;28;89434;-70
2023/06/17 03:51:03;;;;;;;72.03;53.65;;;20.10;65.00;;;;;;4932062;28;89430;-70
2023/06/17 03:53:29;;;;;;;71.38;53.13;;;20.10;64.90;;;;;;4939589;28;90791;-70
2023/06/17 03:55:55;;;;;;;72.47;53.85;;;20.10;64.80;;;;;;4935901;28;90912;-70
2023/06/17 03:58:20;;;;;;;72.80;53.85;;;20.10;64.60;;;;;;4939277;28;90761;-71
2023/06/17 04:00:47;;;;;;;71.68;53.17;;;20.00;65.10;;;;;;4938720;28;89568;-71
2023/06/17 04:03:14;;;;;;;71.65;53.28;;;20.00;65.30;;;;;;4936113;28;91600;-70
2023/06/17 04:05:41;;;;;;;73.05;53.85;;;20.10;65.50;;;;;;4939725;28;89502;-70
2023/06/17 04:08:07;;;;;;;72.05;53.55;;;20.10;65.00;;;;;;4939707;28;90517;-70
2023/06/17 04:10:33;;;;;;;71.88;53.50;;;20.00;65.40;;;;;;4931448;28;89018;-69
2023/06/17 04:12:59;;;;;;;71.57;53.40;;;20.00;65.00;;;;;;4934132;28;90480;-70
2023/06/17 04:15:24;;;;;;;71.75;53.53;;;20.00;65.10;;;;;;4942264;28;90044;-69
2023/06/17 04:17:50;;;;;;;72.72;53.70;;;20.00;65.20;;;;;;4940163;28;90580;-70
2023/06/17 04:20:16;;;;;;;72.70;53.78;;;19.90;64.60;;;;;;4937002;28;89378;-71
2023/06/17 04:22:43;;;;;;;72.97;53.58;;;20.00;65.20;;;;;;4934510;28;89583;-70
2023/06/17 04:25:12;;;;;;;71.45;53.45;;;20.00;65.20;;;;;;4937684;28;89935;-69
2023/06/17 04:27:38;;;;;;;71.05;53.25;;;20.00;64.60;;;;;;4942382;28;90523;-71
2023/06/17 04:30:07;;;;;;;72.93;53.72;;;20.00;65.00;;;;;;4937606;28;89165;-71
2023/06/17 04:32:35;;;;;;;72.05;53.75;;;20.00;64.70;;;;;;4938609;28;89736;-71
2023/06/17 04:35:03;;;;;;;71.78;53.63;;;20.00;64.90;;;;;;4933589;28;90010;-70
2023/06/17 04:37:29;;;;;;;72.18;53.97;;;20.00;64.70;;;;;;4931213;28;90087;-70
2023/06/17 04:39:56;;;;;;;71.68;53.33;;;20.00;64.70;;;;;;4939283;28;90431;-71
2023/06/17 04:42:22;;;;;;;72.13;53.63;;;20.00;65.00;;;;;;4932036;28;91302;-69
2023/06/17 04:44:48;;;;;;;74.47;53.95;;;20.00;64.60;;;;;;4936822;28;90679;-67
2023/06/17 04:47:19;;;;;;;71.93;53.35;;;20.00;65.00;;;;;;4936033;28;89716;-70
2023/06/17 04:49:47;;;;;;;72.63;54.15;;;20.10;64.40;;;;;;4932791;28;89591;-71
2023/06/17 04:52:13;;;;;;;71.72;53.55;;;20.10;64.80;;;;;;4935725;28;89865;-71
2023/06/17 04:54:39;;;;;;;72.13;53.75;;;20.10;64.90;;;;;;4936097;28;89442;-71
2023/06/17 04:57:06;;;;;;;71.85;53.55;;;20.10;64.90;;;;;;4938040;28;89559;-71
2023/06/17 04:59:32;;;;;;;72.75;53.60;;;20.20;64.70;;;;;;4938196;28;89255;-71
2023/06/17 05:01:57;;;;;;;71.10;53.50;;;20.20;64.20;;;;;;4935220;28;89590;-70
2023/06/17 05:04:23;;;;;;;73.55;54.15;;;20.20;64.00;;;;;;4928254;28;92203;-71
2023/06/17 05:06:49;;;;;;;73.30;54.05;;;20.20;64.20;;;;;;4930756;28;90348;-69
2023/06/17 05:09:14;;;;;;;72.22;53.88;;;20.20;64.10;;;;;;4936617;28;90062;-70
2023/06/17 05:11:42;;;;;;;72.47;54.00;;;20.20;63.90;;;;;;4936213;28;90816;-71
2023/06/17 05:14:08;;;;;;;72.43;53.63;;;20.20;64.00;;;;;;4933398;28;89715;-71
2023/06/17 05:16:34;;;;;;;72.90;53.88;;;20.20;64.10;;;;;;4929314;28;89591;-69
2023/06/17 05:18:59;;;;;;;71.75;53.65;;;20.20;63.60;;;;;;4934120;28;89912;-70
2023/06/17 05:21:25;;;;;;;72.38;53.92;;;20.20;64.10;;;;;;4927816;28;90516;-71
2023/06/17 05:23:51;;;;;;;73.20;53.88;;;20.20;64.10;;;;;;4938779;28;88861;-71
2023/06/17 05:26:17;;;;;;;73.90;54.05;;;20.30;64.00;;;;;;4940009;28;89582;-71
2023/06/17 05:28:42;;;;;;;72.75;53.78;;;20.30;64.10;;;;;;4941455;28;89750;-70
2023/06/17 05:31:11;;;;;;;72.43;53.53;;;20.30;63.90;;;;;;4938851;28;90376;-71
2023/06/17 05:33:37;;;;;;;73.13;53.53;;;20.40;63.70;;;;;;4937404;28;90126;-71
2023/06/17 05:36:03;;;;;;;72.15;53.90;;;20.40;64.20;;;;;;4938367;28;89736;-72
2023/06/17 05:38:29;;;;;;;73.15;54.05;;;20.40;63.90;;;;;;4935165;28;93155;-70
2023/06/17 05:40:55;;;;;;;73.30;53.88;;;20.50;64.50;;;;;;4935197;28;90907;-70
2023/06/17 05:43:21;;;;;;;73.47;54.13;;;20.60;63.70;;;;;;4939615;28;90228;-70
2023/06/17 05:45:47;;;;;;;72.47;53.63;;;20.70;63.70;;;;;;4936910;28;89965;-71
2023/06/17 05:48:12;;;;;;;72.78;53.67;;;20.70;64.30;;;;;;4941126;28;88458;-71
2023/06/17 05:50:38;;;;;;;72.55;53.90;;;20.80;63.00;;;;;;4942442;28;89918;-71
2023/06/17 05:53:04;;;;;;;77.30;54.25;;;20.80;62.80;;;;;;4937708;28;89925;-72
2023/06/17 05:55:30;;;;;;;73.38;54.13;;;20.90;63.90;;;;;;4929073;28;90872;-71
2023/06/17 05:57:56;;;;;;;73.47;54.30;;;21.00;63.50;;;;;;4938793;28;90084;-71
2023/06/17 06:00:22;;;;;;;73.68;53.95;;;21.10;62.50;;;;;;4934965;28;90452;-71
2023/06/17 06:02:49;;;;;;;73.88;53.78;;;21.20;62.70;;;;;;4938800;28;90172;-71
2023/06/17 06:05:14;;;;;;;73.43;54.03;;;21.30;62.60;;;;;;4935849;28;89840;-71
2023/06/17 06:07:43;;;;;;;73.40;54.13;;;21.40;62.40;;;;;;4937590;28;89508;-71
2023/06/17 06:10:12;;;;;;;73.47;53.95;;;21.50;62.40;;;;;;4932454;28;91882;-69
2023/06/17 06:12:39;;;;;;;73.60;53.92;;;21.50;61.80;;;;;;4925702;28;91191;-71
2023/06/17 06:15:06;;;;;;;75.03;54.50;;;21.50;61.90;;;;;;4933184;28;89563;-70
2023/06/17 06:17:31;;;;;;;73.78;53.88;;;21.60;61.70;;;;;;4925088;28;89780;-71
2023/06/17 06:19:57;;;;;;;73.82;54.42;;;21.60;61.90;;;;;;4930570;28;91975;-71
2023/06/17 06:22:23;;;;;;;74.10;54.05;;;21.70;61.20;;;;;;4932124;28;89835;-72
2023/06/17 06:24:48;;;;;;;74.28;54.33;;;21.70;61.30;;;;;;4933534;28;89706;-71
2023/06/17 06:27:14;;;;;;;74.35;54.13;;;21.80;61.00;;;;;;4932951;28;90640;-70
2023/06/17 06:29:40;;;;;;;73.50;54.00;;;21.90;61.00;;;;;;4937157;28;91403;-69
2023/06/17 06:32:06;;;;;;;75.03;54.33;;;21.90;60.70;;;;;;4932520;28;90429;-71
2023/06/17 06:34:32;;;;;;;73.88;54.38;;;22.00;60.60;;;;;;4926054;28;89793;-71
2023/06/17 06:36:58;;;;;;;75.10;54.53;;;22.00;60.50;;;;;;4938080;28;89628;-70
2023/06/17 06:39:25;;;;;;;74.63;53.78;;;22.10;60.60;;;;;;4935439;28;89711;-71
2023/06/17 06:41:50;;;;;;;74.20;54.15;;;22.10;60.30;;;;;;4939616;28;89658;-70
2023/06/17 06:44:16;;;;;;;74.63;54.35;;;22.10;60.20;;;;;;4931671;28;90487;-72
2023/06/17 06:46:42;;;;;;;74.88;54.53;;;22.20;60.00;;;;;;4936473;28;94596;-71
2023/06/17 06:49:08;;;;;;;74.13;54.10;;;22.20;60.00;;;;;;4934991;28;91071;-71
2023/06/17 06:51:34;;;;;;;75.47;54.40;;;22.30;59.80;;;;;;4937176;28;89496;-71
2023/06/17 06:53:59;;;;;;;74.75;54.33;;;22.30;59.80;;;;;;4939863;28;89491;-71
2023/06/17 06:56:26;;;;;;;74.95;54.65;;;22.30;59.60;;;;;;4939174;28;90146;-71
2023/06/17 06:58:52;;;;;;;76.10;54.60;;;22.40;59.60;;;;;;4930016;28;90000;-71
2023/06/17 07:01:18;;;;;;;74.45;54.50;;;22.40;59.60;;;;;;4929237;28;89913;-71
2023/06/17 07:03:43;;;;;;;75.85;54.78;;;22.50;59.60;;;;;;4936175;28;89923;-71
2023/06/17 07:06:09;;;;;;;75.78;54.80;;;22.50;59.50;;;;;;4936895;28;89327;-71
2023/06/17 07:08:35;;;;;;;75.90;54.55;;;22.60;59.40;;;;;;4938589;28;91044;-71
2023/06/17 07:11:01;;;;;;;75.78;54.92;;;22.70;59.40;;;;;;4936698;28;92337;-70
2023/06/17 07:13:27;;;;;;;76.43;54.80;;;22.80;59.30;;;;;;4935566;28;89428;-70
2023/06/17 07:15:52;;;;;;;76.05;54.78;;;22.80;59.00;;;;;;4929305;28;91111;-71
2023/06/17 07:18:18;;;;;;;75.32;54.53;;;22.80;58.80;;;;;;4932002;28;90115;-70
2023/06/17 07:20:44;;;;;;;75.68;54.33;;;22.90;58.60;;;;;;4919382;28;89872;-71
2023/06/17 07:23:09;;;;;;;75.07;54.88;;;22.90;58.50;;;;;;4926727;28;90097;-70
2023/06/17 07:25:36;;;;;;;82.15;56.60;;;23.00;58.30;;;;;;4935243;28;89883;-68
2023/06/17 07:28:02;;;;;;;84.63;56.88;;;23.10;55.90;;;;;;4934552;28;90261;-67
2023/06/17 07:30:29;;;;;;;81.20;55.95;;;23.10;55.90;;;;;;4925033;28;89762;-71
2023/06/17 07:32:55;;;;;;;84.82;55.80;;;23.10;56.40;;;;;;4932129;28;92022;-71
2023/06/17 07:35:20;;;;;;;83.03;56.13;;;23.20;54.50;;;;;;4915255;28;91734;-70
2023/06/17 07:37:46;;;;;;;76.60;54.95;;;23.20;53.70;;;;;;4922483;28;94539;-72
2023/06/17 07:40:13;;;;;;;80.80;56.08;;;23.40;55.30;;;;;;4930680;28;89568;-71
2023/06/17 07:42:39;;;;;;;77.18;55.08;;;23.50;53.10;;;;;;4930384;28;90036;-72
2023/06/17 07:45:05;;;;;;;79.07;56.10;;;23.50;54.90;;;;;;4930029;28;89514;-71
2023/06/17 07:47:31;;;;;;;81.07;55.35;;;23.50;52.50;;;;;;4932765;28;90514;-71
2023/06/17 07:49:57;;;;;;;81.18;55.42;;;23.50;52.00;;;;;;4925970;28;90818;-72
2023/06/17 07:52:22;;;;;;;75.20;54.67;;;23.60;53.80;;;;;;4933857;28;89815;-70
2023/06/17 07:54:48;;;;;;;76.53;54.80;;;23.60;55.10;;;;;;4927451;28;90720;-70
2023/06/17 07:57:14;;;;;;;78.65;55.53;;;23.60;54.00;;;;;;4926588;28;93584;-71
2023/06/17 07:59:43;;;;;;;79.88;55.88;;;23.70;52.70;;;;;;4929998;28;93369;-71
2023/06/17 08:02:09;;;;;;;75.47;54.40;;;23.70;51.70;;;;;;4934367;28;89387;-71
2023/06/17 08:04:35;;;;;;;77.18;55.88;;;23.70;54.00;;;;;;4912766;28;91050;-71
2023/06/17 08:07:01;;;;;;;77.15;55.53;;;23.80;51.50;;;;;;4921135;28;91538;-71
2023/06/17 08:09:27;;;;;;;77.10;54.80;;;23.90;52.20;;;;;;4921594;28;89580;-71
2023/06/17 08:11:52;;;;;;;77.70;55.40;;;23.90;53.50;;;;;;4934146;28;89567;-71
2023/06/17 08:14:18;;;;;;;76.93;55.15;;;24.00;52.30;;;;;;4910773;28;92157;-70
2023/06/17 08:16:44;;;;;;;75.70;54.45;;;24.10;52.40;;;;;;4921104;28;89897;-72
2023/06/17 08:19:10;;;;;;;78.88;56.30;;;24.20;52.50;;;;;;4923914;28;89881;-72
2023/06/17 08:21:37;;;;;;;78.53;55.95;;;24.20;51.10;;;;;;4893018;28;93802;-72
2023/06/17 08:24:24;;;;;;;77.97;55.85;;;24.30;51.40;;;;;;4922551;28;91862;-72
2023/06/17 08:26:51;;;;;;;80.63;55.65;;;24.40;51.90;;;;;;4927780;28;89850;-71
2023/06/17 08:29:18;;;;;;;78.03;55.55;;;24.50;51.30;;;;;;4934167;28;91768;-74
2023/06/17 08:31:45;;;;;;;81.20;56.05;;;24.50;50.90;;;;;;4937663;28;89260;-72
2023/06/17 08:34:12;;;;;;;79.32;55.83;;;24.60;50.40;;;;;;4928278;28;89343;-71
2023/06/17 08:36:39;;;;;;;80.28;56.08;;;24.70;50.40;;;;;;4927149;28;90084;-70
2023/06/17 08:39:05;;;;;;;79.45;55.97;;;24.80;50.20;;;;;;4931560;28;90823;-73
2023/06/17 08:41:36;;;;;;;79.05;55.95;;;24.80;51.20;;;;;;4932572;28;90295;-71
2023/06/17 08:44:01;;;;;;;;;;;24.90;51.30;;;;;;4917986;28;90540;-72
2023/06/17 08:46:27;;;;;;;82.05;56.35;;;25.00;52.30;;;;;;4925758;28;91262;-73
2023/06/17 08:48:54;;;;;;;80.63;56.15;;;25.10;52.10;;;;;;4934147;28;89617;-71
2023/06/17 08:51:21;;;;;;;81.32;56.20;;;25.20;52.70;;;;;;4923369;28;94565;-70
2023/06/17 08:53:47;;;;;;;83.68;56.42;;;25.20;52.50;;;;;;4931440;28;89468;-73
2023/06/17 08:56:13;;;;;;;80.55;56.30;;;25.20;52.90;;;;;;4932808;28;90398;-73
2023/06/17 08:58:39;;;;;;;80.07;56.80;;;25.20;52.00;;;;;;4932679;28;90353;-71
2023/06/17 09:01:05;;;;;;;82.63;56.58;;;25.30;51.90;;;;;;4931242;28;89940;-71
2023/06/17 09:03:36;;;;;;;97.93;59.55;;;25.30;52.50;;;;;;4930995;28;88234;-73
2023/06/17 09:06:03;;;;;;;90.28;58.95;;;25.40;52.80;;;;;;4912584;28;91057;-71
2023/06/17 09:08:30;;;;;;;87.40;58.83;;;25.40;52.60;;;;;;4905648;28;90290;-72
2023/06/17 09:11:05;;;;;;;101.00;58.50;;;25.50;52.50;;;;;;4923123;28;95798;-72
2023/06/17 09:13:30;;;;;;;87.78;58.13;;;25.50;51.40;;;;;;4921189;28;90104;-72
2023/06/17 09:15:56;;;;;;;88.90;58.45;;;25.60;51.60;;;;;;4936783;28;89687;-72
2023/06/17 09:18:22;;;;;;;88.57;58.42;;;25.60;51.10;;;;;;4940342;28;89023;-72
2023/06/17 09:20:57;;;;;;;84.57;58.22;;;25.70;51.40;;;;;;4934334;28;89661;-72
2023/06/17 09:23:25;;;;;;;88.60;59.05;;;25.70;51.20;;;;;;4938015;28;89639;-72
2023/06/17 09:26:09;;;;;;;85.15;58.33;;;25.80;50.60;;;;;;4924496;28;97128;-71
2023/06/17 09:28:35;;;;;;;85.57;58.22;;;25.90;50.70;;;;;;4930350;28;94526;-72
2023/06/17 09:31:04;;;;;;;84.63;58.70;;;25.90;50.30;;;;;;4929992;28;99325;-73
2023/06/17 09:33:29;;;;;;;85.80;58.33;;;26.00;49.90;;;;;;4936859;28;94535;-72
2023/06/17 09:36:00;;;;;;;86.25;58.28;;;26.00;49.90;;;;;;4930786;28;95467;-72
2023/06/17 09:38:27;;;;;;;;;;;26.10;49.80;;;;;;4936913;28;95349;-72
2023/06/17 09:40:54;;;;;;;84.30;58.05;;;26.10;49.80;;;;;;4942000;28;94796;-72
2023/06/17 09:43:22;;;;;;;82.95;58.22;;;26.20;49.80;;;;;;4937509;28;94184;-73
2023/06/17 09:45:49;;;;;;;84.90;57.72;;;26.20;50.10;;;;;;4934036;28;94648;-71
2023/06/17 09:48:17;;;;;;;81.53;57.85;;;26.20;49.70;;;;;;4937542;28;95186;-71
2023/06/17 09:50:43;;;;;;;82.65;57.92;;;26.20;49.40;;;;;;4931362;28;96090;-72
2023/06/17 09:53:09;;;;;;;84.47;58.05;;;26.20;49.60;;;;;;4931301;28;93789;-71
2023/06/17 09:55:36;;;;;;;85.03;57.58;;;26.20;49.60;;;;;;4938359;28;94731;-73
2023/06/17 09:58:03;;;;;;;82.95;57.58;;;26.20;49.90;;;;;;4936073;28;95018;-71
2023/06/17 10:00:31;;;;;;;86.22;58.15;;;26.20;50.50;;;;;;4936229;28;95635;-72
2023/06/17 10:02:57;;;;;;;82.05;57.90;;;26.20;49.80;;;;;;4935857;28;98309;-72
2023/06/17 10:05:23;;;;;;;85.20;58.00;;;26.10;50.00;;;;;;4929621;28;94362;-71
2023/06/17 10:07:51;;;;;;;82.45;57.53;;;26.20;49.80;;;;;;4937060;28;95854;-72
2023/06/17 10:10:18;;;;;;;81.90;57.45;;;26.20;49.60;;;;;;4935006;28;94784;-74
2023/06/17 10:12:45;;;;;;;81.13;57.45;;;26.20;50.10;;;;;;4938635;28;95110;-72
2023/06/17 10:15:12;;;;;;;86.65;58.15;;;26.10;49.70;;;;;;4939347;28;94748;-73
2023/06/17 10:17:41;;;;;;;82.10;57.42;;;26.20;49.80;;;;;;4933250;28;94391;-72
2023/06/17 10:20:09;;;;;;;85.28;58.42;;;26.20;49.60;;;;;;4935432;28;94286;-73
2023/06/17 10:22:37;;;;;;;86.70;57.67;;;26.30;49.80;;;;;;4934944;28;94965;-72
2023/06/17 10:25:09;;;;;;;80.13;57.50;;;26.30;49.40;;;;;;4926665;28;95929;-72
2023/06/17 10:27:35;;;;;;;82.75;58.38;;;26.30;49.40;;;;;;4931839;28;95741;-71
2023/06/17 10:30:00;;;;;;;84.45;58.05;;;26.30;49.10;;;;;;4929846;28;94763;-73
2023/06/17 10:32:26;;;;;;;81.80;57.80;;;26.40;49.10;;;;;;4936525;28;95067;-72
2023/06/17 10:35:10;;;;;;;85.18;58.17;;;26.40;49.00;;;;;;4901536;28;95986;-72
2023/06/17 10:38:02;;;;;;;83.50;57.95;;;26.50;48.60;;;;;;4911057;28;96394;-72
2023/06/17 10:40:30;;;;;;;87.55;57.92;;;26.60;48.70;;;;;;4920791;28;96149;-71
2023/06/17 10:43:02;;;;;;;83.90;58.58;;;26.60;48.80;;;;;;4930566;28;94281;-73
2023/06/17 10:45:54;;;;;;;88.50;58.30;;;26.60;48.90;;;;;;4927611;28;95482;-71
2023/06/17 10:48:20;;;;;;;87.60;58.25;;;26.70;49.00;;;;;;4918898;28;95526;-71
2023/06/17 10:50:57;;;;;;;88.22;58.72;;;26.70;48.90;;;;;;4922126;28;95837;-71
2023/06/17 10:53:31;;;;;;;90.28;58.25;;;26.70;48.70;;;;;;4927606;28;95915;-71
2023/06/17 10:55:59;;;;;;;87.40;58.53;;;26.70;48.90;;;;;;4929714;28;95400;-72
2023/06/17 10:58:35;;;;;;;84.35;58.17;;;26.80;48.90;;;;;;4930799;28;95183;-71
2023/06/17 11:01:06;;;;;;;84.35;58.47;;;26.80;49.10;;;;;;4937229;28;94593;-71
2023/06/17 11:03:32;;;;;;;84.68;57.90;;;26.80;48.80;;;;;;4930366;28;97024;-71
2023/06/17 11:06:03;;;;;;;86.10;58.15;;;26.90;48.60;;;;;;4930835;28;96115;-71
2023/06/17 11:08:30;;;;;;;84.72;58.47;;;26.90;48.40;;;;;;4936743;28;94714;-69
2023/06/17 11:11:09;;;;;;;82.80;57.70;;;26.90;48.80;;;;;;4932846;28;95584;-72
2023/06/17 11:13:39;;;;;;;82.70;57.95;;;26.90;48.60;;;;;;4928383;28;94659;-71
2023/06/17 11:16:05;;;;;;;85.78;57.85;;;26.90;48.60;;;;;;4929082;28;96115;-72
2023/06/17 11:18:33;;;;;;;85.45;58.42;;;27.00;49.50;;;;;;4934389;28;95968;-71
2023/06/17 11:20:59;;;;;;;87.95;57.70;;;27.00;49.00;;;;;;4929161;28;94581;-71
2023/06/17 11:23:26;;;;;;;92.13;57.83;;;27.00;48.90;;;;;;4944644;22;97241;-48
2023/06/17 11:25:53;;;;;;;84.25;57.95;;;27.00;47.70;;;;;;4887889;28;96693;-47
2023/06/17 11:28:20;;;;;;;83.47;57.40;;;26.90;46.00;;;;;;4888469;28;95033;-50
2023/06/17 11:30:46;;;;;;;84.55;57.38;;;26.90;45.40;;;;;;4866815;28;95504;-51
2023/06/17 11:33:12;;;;;;;81.97;57.88;;;26.90;44.60;;;;;;4887496;28;95901;-47
2023/06/17 11:35:38;;;;;;;82.32;57.40;;;26.80;43.50;;;;;;4878388;28;96292;-50
2023/06/17 11:38:04;;;;;;;83.28;57.60;;;26.80;43.20;;;;;;4881307;28;96542;-51
2023/06/17 11:40:30;;;;;;;82.57;57.45;;;26.70;42.70;;;;;;4881202;28;96201;-48
2023/06/17 11:42:57;;;;;;;80.10;57.00;;;26.80;43.00;;;;;;4883678;28;95159;-48
2023/06/17 11:45:23;;;;;;;80.88;57.35;;;26.80;41.70;;;;;;4884129;28;94905;-48
2023/06/17 11:47:49;;;;;;;85.75;57.50;;;26.80;40.80;;;;;;4889119;28;95117;-48
2023/06/17 11:50:16;;;;;;;84.55;57.55;;;26.70;41.00;;;;;;4883855;28;95434;-46
2023/06/17 11:52:53;;;;;;;82.65;57.38;;;26.80;41.60;;;;;;4883300;28;94932;-45
2023/06/17 11:55:18;;;;;;;80.20;57.35;;;26.70;40.60;;;;;;4893441;28;94823;-51
2023/06/17 11:57:44;;;;;;;80.93;57.33;;;26.70;40.00;;;;;;4904288;28;93990;-47
2023/06/17 12:00:12;;;;;;;80.20;57.63;;;26.80;40.40;;;;;;4904182;28;97091;-49
2023/06/17 12:02:38;;;;;;;85.50;57.80;;;26.90;41.00;;;;;;4898436;28;96119;-48
2023/06/17 12:05:05;;;;;;;83.18;57.70;;;27.00;40.50;;;;;;4902087;28;95719;-48
2023/06/17 12:07:39;;;;;;;84.38;57.58;;;27.10;40.80;;;;;;4899805;28;95334;-47
2023/06/17 12:10:06;;;;;;;85.07;57.40;;;27.10;41.20;;;;;;4899408;28;95393;-49
2023/06/17 12:12:34;;;;;;;80.45;57.67;;;27.20;41.50;;;;;;4899568;28;95775;-49
2023/06/17 12:15:06;;;;;;;82.40;57.38;;;27.20;41.40;;;;;;4898775;28;96411;-53
2023/06/17 12:17:42;;;;;;;81.28;57.53;;;27.20;41.50;;;;;;4896058;28;94838;-42
2023/06/17 12:20:15;;;;;;;85.63;57.80;;;27.30;41.50;;;;;;4896843;28;94859;-43
2023/06/17 12:22:42;;;;;;;80.28;57.67;;;27.30;41.40;;;;;;4897775;28;93859;-42
2023/06/17 12:25:11;;;;;;;81.07;57.38;;;27.30;41.60;;;;;;4900858;28;96005;-42
2023/06/17 12:27:38;;;;;;;81.47;57.92;;;27.30;41.90;;;;;;4895980;28;95546;-41
2023/06/17 12:30:05;;;;;;;80.90;57.22;;;27.40;41.80;;;;;;4899133;28;97390;-44